Esther, Alberta

Past 24 Hour Conditions

Date / Time
(MDT)
Conditions Temp
(°F)
Humidity
(%)
Dew Point
(°F)
Wind
(mph)
Pressure
(inches)
Visibility
(miles)
31 October 2014
21:00 N/A 37 80 32 SSE 8 29.7 N/A
20:00 N/A 40 74 32 ESE 7 29.7 N/A
19:00 N/A 47 67 36 SSE 6 29.7 N/A
18:00 N/A 49 65 37 NE 4 29.7 N/A
17:00 N/A 51 58 37 NNE 5 29.7 N/A
16:00 N/A 55 48 36 SE 12 29.6 N/A
15:00 N/A 58   42 35 SSE 15 gust 20 29.7 N/A
14:00 N/A 54 52 37 SE 11 gust 20 29.7 N/A
13:00 N/A 51 55 36 SE 14 29.7 N/A
12:00 N/A 48 60 35 SE 12 gust 19 29.8 N/A
11:00 N/A 44 67 34 ESE 17 gust 24 29.8 N/A
10:00 N/A 38 81 32 ESE 14 gust 19 29.8 N/A
9:00 N/A 35 85 31 ESE 15 29.8 N/A
8:00 N/A 34 87 31 ESE 17 29.9 N/A
7:00 N/A 36 84 31 ESE 19 29.9 N/A
6:00 N/A 36 83 32 ESE 22 gust 28 29.9 N/A
5:00 N/A 35 84 31 SE 24 gust 30 29.9 N/A
4:00 N/A 35 85 31 SE 26 gust 32 30.0 N/A
3:00 N/A 34 86 30 ESE 25 gust 32 30.0 N/A
2:00 N/A 33 87 30 ESE 24 gust 32 30.1 N/A
1:00 N/A 33 87 30 ESE 26 gust 33 30.1 N/A
00:00 N/A 33 86 30 ESE 26 gust 34 30.1 N/A
30 October 2014
23:00 N/A 33 87 30 ESE 26 30.2 N/A
22:00 N/A 32   88 29 ESE 22 gust 30 30.2 N/A
21:00 N/A 32   88 29 ESE 22 gust 31 30.2 N/A
N/A Not available
↑ Highest temperature
↓ Lowest temperature

If you require additional historical weather information, please visit Climate Data Online.

Date modified: